Time;durP1;ratioP1;P1;durP2;ratioP2;P2;SDS_P1;SDS_P2;PMS_P1;PMS_P2;Temp;Humidity;BMP_temperature;BMP_pressure;BME280_temperature;BME280_humidity;BME280_pressure;Samples;Min_cycle;Max_cycle;Signal;HPM_P1;HPM_P2
2022/01/07 00:00:28;;;;;;;7.40;4.23;;;;;;;-143.84;74.44;45155.69;5055351;28;21018;-84
2022/01/07 00:02:57;;;;;;;4.80;4.13;;;;;;;-143.84;74.50;45123.34;5055554;28;20460;-85
2022/01/07 00:05:26;;;;;;;4.90;4.47;;;;;;;-143.84;74.81;45134.75;5054126;28;20856;-82
2022/01/07 00:07:53;;;;;;;5.00;4.50;;;;;;;-143.84;74.61;45228.06;5052806;28;20525;-83
2022/01/07 00:10:22;;;;;;;6.13;4.60;;;;;;;-143.84;75.01;45153.81;5053366;28;20437;-82
2022/01/07 00:12:51;;;;;;;5.10;4.37;;;;;;;-143.84;75.44;45144.28;5053576;28;20429;-82
2022/01/07 00:15:20;;;;;;;5.70;3.80;;;;;;;-143.84;75.46;45130.94;5051944;28;20482;-82
2022/01/07 00:17:48;;;;;;;5.83;3.93;;;;;;;-143.84;75.68;45146.19;5053027;28;20449;-83
2022/01/07 00:20:16;;;;;;;4.43;4.03;;;;;;;-143.84;75.61;45136.66;5052844;28;20465;-83
2022/01/07 00:22:44;;;;;;;4.00;3.70;;;;;;;-143.84;76.14;45140.47;5053134;28;20444;-82
2022/01/07 00:25:13;;;;;;;4.73;4.33;;;;;;;-143.84;75.68;45138.56;5052963;28;20860;-82
2022/01/07 00:27:41;;;;;;;9.23;4.10;;;;;;;-143.84;76.34;45161.41;5053032;28;20450;-82
2022/01/07 00:30:11;;;;;;;3.70;3.40;;;;;;;-143.84;76.35;45144.28;5052820;28;20511;-82
2022/01/07 00:32:40;;;;;;;4.30;3.90;;;;;;;-143.84;76.40;45157.59;5052970;28;20426;-83
2022/01/07 00:35:08;;;;;;;4.50;3.60;;;;;;;-143.84;76.68;45151.91;5052450;28;20475;-83
2022/01/07 00:37:36;;;;;;;4.13;3.73;;;;;;;-143.84;76.63;45132.84;5035070;28;20497;-83
2022/01/07 00:40:04;;;;;;;6.07;3.77;;;;;;;-143.84;76.46;45123.34;5032119;28;20497;-82
2022/01/07 00:42:31;;;;;;;4.50;3.87;;;;;;;-143.84;76.23;45140.47;5032991;28;20488;-82
2022/01/07 00:44:58;;;;;;;4.23;3.83;;;;;;;-143.84;75.72;45136.66;5032695;28;20439;-83
2022/01/07 00:47:26;;;;;;;4.20;3.83;;;;;;;-143.84;76.03;45170.94;5033273;28;20489;-82
2022/01/07 00:49:54;;;;;;;3.70;3.40;;;;;;;-143.84;76.44;45167.13;5033112;28;20986;-82
2022/01/07 00:52:21;;;;;;;10.50;4.20;;;;;;;-143.84;76.30;45127.13;5034075;28;20451;-82
2022/01/07 00:54:48;;;;;;;4.37;3.97;;;;;;;-143.84;76.10;45176.66;5033137;28;20438;-82
2022/01/07 00:57:16;;;;;;;3.50;3.30;;;;;;;-143.84;75.43;45125.22;5032799;28;20474;-83
2022/01/07 00:59:45;;;;;;;5.90;3.97;;;;;;;-143.84;75.65;45136.66;5033108;28;20450;-82
2022/01/07 01:02:12;;;;;;;4.27;3.33;;;;;;;-143.84;75.65;45151.91;5033601;28;20467;-83
2022/01/07 01:04:40;;;;;;;4.37;3.97;;;;;;;-143.84;75.85;45167.13;5033080;28;20463;-83
2022/01/07 01:07:08;;;;;;;4.47;4.07;;;;;;;-143.84;76.03;45146.19;5032744;28;20439;-83
2022/01/07 01:09:35;;;;;;;3.93;3.53;;;;;;;-143.84;76.21;45155.69;5032830;28;20489;-83
2022/01/07 01:12:03;;;;;;;4.67;4.17;;;;;;;-143.84;76.16;45148.09;5029570;28;20944;-75
2022/01/07 01:14:31;;;;;;;4.83;3.93;;;;;;;-143.84;76.33;45142.38;5024964;28;20483;-74
2022/01/07 01:16:59;;;;;;;5.77;4.57;;;;;;;-143.84;76.40;45157.59;5009823;28;20497;-75
2022/01/07 01:19:27;;;;;;;4.27;3.90;;;;;;;-143.84;76.95;45159.50;5009567;28;20542;-74
2022/01/07 01:21:55;;;;;;;4.27;3.87;;;;;;;-143.84;76.69;45161.41;5009880;28;20492;-75
2022/01/07 01:24:24;;;;;;;4.67;4.27;;;;;;;-143.84;76.66;45161.41;5009728;28;20440;-74
2022/01/07 01:26:51;;;;;;;4.63;4.17;;;;;;;-143.84;77.00;45138.56;5009657;28;20447;-74
2022/01/07 01:29:20;;;;;;;4.33;3.90;;;;;;;-143.84;77.34;45153.81;5009601;28;20502;-74
2022/01/07 01:31:48;;;;;;;5.03;3.53;;;;;;;-143.84;77.51;45163.31;5008030;28;21007;-74
2022/01/07 01:34:15;;;;;;;4.50;4.10;;;;;;;-143.84;77.68;45167.13;5009374;28;20444;-74
2022/01/07 01:36:42;;;;;;;4.90;4.40;;;;;;;-143.84;77.47;45195.69;5012293;28;20451;-82
2022/01/07 01:39:12;;;;;;;8.07;4.50;;;;;;;-143.84;77.40;45159.50;5012788;28;20432;-82
2022/01/07 01:41:40;;;;;;;4.27;3.87;;;;;;;-143.84;77.49;45142.38;5012360;28;20572;-82
2022/01/07 01:44:08;;;;;;;4.57;4.23;;;;;;;-143.84;76.95;45150.00;5013155;28;20590;-82
2022/01/07 01:46:35;;;;;;;5.10;4.60;;;;;;;-143.84;76.53;45167.13;5012625;28;20816;-82
2022/01/07 01:49:03;;;;;;;5.47;4.30;;;;;;;-143.84;77.10;45199.50;5012554;28;20791;-81
2022/01/07 01:51:31;;;;;;;6.53;4.13;;;;;;;-143.84;76.92;45148.09;5012626;28;20428;-82
2022/01/07 01:53:58;;;;;;;6.23;5.10;;;;;;;-143.84;76.63;45254.72;5012899;28;20440;-82
2022/01/07 01:56:25;;;;;;;8.33;5.60;;;;;;;-143.84;76.59;45163.31;5012399;28;20427;-82
2022/01/07 01:58:54;;;;;;;4.90;4.50;;;;;;;-143.84;76.40;45144.28;5012587;28;20455;-82
2022/01/07 02:01:22;;;;;;;9.73;5.07;;;;;;;-143.84;76.26;45146.19;5011911;28;20479;-82
2022/01/07 02:03:49;;;;;;;6.03;4.83;;;;;;;-143.84;76.09;45148.09;5012512;28;20435;-82
2022/01/07 02:06:17;;;;;;;4.90;4.40;;;;;;;-143.84;76.21;45159.50;5012693;28;20485;-82
2022/01/07 02:08:45;;;;;;;4.47;4.03;;;;;;;-143.84;76.05;45167.13;5012294;28;20562;-82
2022/01/07 02:11:12;;;;;;;8.50;5.67;;;;;;;-143.84;75.69;45172.84;5012593;28;20869;-82
2022/01/07 02:13:39;;;;;;;8.03;5.10;;;;;;;-143.84;75.94;45155.69;5012648;28;20431;-81
2022/01/07 02:16:08;;;;;;;8.47;5.20;;;;;;;-143.84;75.93;45151.91;5012150;28;20491;-82
2022/01/07 02:18:36;;;;;;;5.63;4.50;;;;;;;-143.84;75.75;45174.75;5012212;28;20876;-82
2022/01/07 02:21:04;;;;;;;7.30;5.73;;;;;;;-143.84;75.79;45163.31;5012005;28;20471;-82
2022/01/07 02:23:32;;;;;;;6.23;4.90;;;;;;;-143.84;76.37;45163.31;5012799;28;20571;-82
2022/01/07 02:26:01;;;;;;;5.80;4.87;;;;;;;-143.84;76.43;45161.41;5012111;28;20432;-82
2022/01/07 02:28:29;;;;;;;5.00;4.50;;;;;;;-143.84;76.57;45170.94;5012044;28;20436;-82
2022/01/07 02:30:56;;;;;;;7.43;6.33;;;;;;;-143.84;76.41;45172.84;5012103;28;20442;-82
2022/01/07 02:33:23;;;;;;;5.87;5.27;;;;;;;-143.84;76.68;45148.09;5012803;28;20448;-82
2022/01/07 02:35:50;;;;;;;8.47;5.90;;;;;;;-143.84;76.65;45161.41;5012135;28;20428;-82
2022/01/07 02:38:19;;;;;;;8.20;5.70;;;;;;;-143.84;76.66;45174.75;5013491;28;20443;-78
2022/01/07 02:40:46;;;;;;;7.87;6.43;;;;;;;-143.84;76.80;45169.03;5014126;28;20836;-78
2022/01/07 02:43:14;;;;;;;7.53;5.70;;;;;;;-143.84;76.83;45140.47;5034362;28;20450;-77
2022/01/07 02:45:41;;;;;;;6.40;5.80;;;;;;;-143.84;76.60;45132.84;5033412;28;21265;-78
2022/01/07 02:48:09;;;;;;;7.87;5.40;;;;;;;-143.84;76.39;45180.47;5034010;28;20454;-78
2022/01/07 02:50:37;;;;;;;5.80;5.10;;;;;;;-143.84;76.32;45136.66;5033756;28;21105;-78
2022/01/07 02:53:07;;;;;;;6.00;4.90;;;;;;;-143.84;76.32;45172.84;5033600;28;20450;-77
2022/01/07 02:55:36;;;;;;;7.90;5.77;;;;;;;-143.84;76.13;45132.84;5033923;28;20864;-77
2022/01/07 02:58:03;;;;;;;5.80;5.30;;;;;;;-143.84;76.26;45144.28;5033132;28;20516;-77
2022/01/07 03:00:31;;;;;;;11.83;5.80;;;;;;;-143.84;75.80;45157.59;5033086;28;20933;-77
2022/01/07 03:02:59;;;;;;;6.80;5.77;;;;;;;-143.84;75.72;45150.00;5032974;28;20486;-77
2022/01/07 03:05:26;;;;;;;10.93;4.80;;;;;;;-143.84;75.80;45159.50;5032867;28;20450;-77
2022/01/07 03:07:54;;;;;;;9.33;4.80;;;;;;;-143.84;74.91;45142.38;5032522;28;20873;-77
2022/01/07 03:10:25;;;;;;;12.47;6.50;;;;;;;-143.84;74.41;45144.28;5032497;28;20453;-77
2022/01/07 03:12:55;;;;;;;5.60;4.70;;;;;;;-143.84;74.72;45153.81;5032949;28;20468;-77
2022/01/07 03:15:23;;;;;;;5.17;4.77;;;;;;;-143.84;74.32;45172.84;5032329;28;20528;-77
2022/01/07 03:17:50;;;;;;;6.67;4.93;;;;;;;-143.84;74.10;45167.13;5032537;28;20434;-77
2022/01/07 03:20:20;;;;;;;8.70;5.13;;;;;;;-143.84;73.70;45155.69;5032665;28;20446;-77
2022/01/07 03:22:48;;;;;;;7.27;5.50;;;;;;;-143.84;73.59;45144.28;5032676;28;21414;-77
2022/01/07 03:25:17;;;;;;;6.50;5.20;;;;;;;-143.84;73.02;45174.75;5033179;28;20439;-78
2022/01/07 03:27:45;;;;;;;6.67;5.83;;;;;;;-143.84;72.79;45132.84;5032484;28;20454;-78
2022/01/07 03:30:16;;;;;;;6.33;5.67;;;;;;;-143.84;72.40;45119.53;5032640;28;20444;-77
2022/01/07 03:32:44;;;;;;;8.20;5.40;;;;;;;-143.84;72.49;45125.22;5032051;28;20455;-78
2022/01/07 03:35:12;;;;;;;8.60;5.10;;;;;;;-143.84;72.76;45146.19;5032908;28;20446;-78
2022/01/07 03:37:40;;;;;;;10.00;5.40;;;;;;;-143.84;72.30;45150.00;5032986;28;20431;-78
2022/01/07 03:40:10;;;;;;;6.03;5.53;;;;;;;-143.84;71.65;45148.09;5020700;28;20971;-78
2022/01/07 03:42:37;;;;;;;6.20;5.60;;;;;;;-143.84;71.14;45153.81;5012907;28;20479;-78
2022/01/07 03:45:05;;;;;;;6.83;5.43;;;;;;;-143.84;71.72;45125.22;5017686;28;20459;-78
2022/01/07 03:47:34;;;;;;;5.73;5.10;;;;;;;-143.84;72.53;45144.28;5012730;28;20506;-77
2022/01/07 03:50:01;;;;;;;7.53;5.97;;;;;;;-143.84;72.25;45151.91;5012704;28;20521;-77
2022/01/07 03:52:28;;;;;;;7.27;6.10;;;;;;;-143.84;72.22;45144.28;5011988;28;20435;-77
2022/01/07 03:54:55;;;;;;;7.27;5.67;;;;;;;-143.84;71.77;45174.75;5012645;28;20530;-77
2022/01/07 03:57:22;;;;;;;5.70;5.10;;;;;;;-143.84;71.65;45150.00;5011911;28;20443;-77
2022/01/07 03:59:50;;;;;;;9.57;5.73;;;;;;;-143.84;71.79;45138.56;5012049;28;20435;-77
2022/01/07 04:02:18;;;;;;;7.20;6.20;;;;;;;-143.84;71.66;45161.41;5012481;28;20483;-77
2022/01/07 04:04:47;;;;;;;6.50;5.50;;;;;;;-143.84;71.54;45151.91;5012603;28;20510;-77
2022/01/07 04:07:14;;;;;;;7.03;6.30;;;;;;;-143.84;71.52;45144.28;5012424;28;21421;-77
2022/01/07 04:09:41;;;;;;;8.57;6.50;;;;;;;-143.84;71.78;45148.09;5011883;28;20505;-77
2022/01/07 04:12:10;;;;;;;7.07;6.37;;;;;;;-143.84;72.07;45157.59;5011624;28;21277;-77
2022/01/07 04:14:37;;;;;;;6.20;5.60;;;;;;;-143.84;72.34;45165.22;5011858;28;20490;-77
2022/01/07 04:17:06;;;;;;;6.63;5.93;;;;;;;-143.84;72.10;45161.41;5011638;28;20439;-76
2022/01/07 04:19:33;;;;;;;6.40;5.80;;;;;;;-143.84;71.66;45165.22;5012228;28;20531;-77
2022/01/07 04:22:02;;;;;;;6.20;5.60;;;;;;;-143.84;72.01;45153.81;5011831;28;20900;-77
2022/01/07 04:24:29;;;;;;;6.53;5.50;;;;;;;-143.84;70.74;45150.00;5012018;28;20458;-77
2022/01/07 04:26:56;;;;;;;9.03;6.50;;;;;;;-143.84;70.40;45155.69;5011958;28;20501;-77
2022/01/07 04:29:23;;;;;;;6.67;5.57;;;;;;;-143.84;71.33;45150.00;5011440;28;20507;-78
2022/01/07 04:31:50;;;;;;;9.63;7.27;;;;;;;-143.84;71.14;45146.19;5022440;28;20957;-77
2022/01/07 04:34:17;;;;;;;6.93;6.13;;;;;;;-143.84;71.06;45169.03;5031726;28;20509;-77
2022/01/07 04:36:45;;;;;;;7.37;5.70;;;;;;;-143.84;71.41;45151.91;5031990;28;20854;-77
2022/01/07 04:39:13;;;;;;;7.70;5.93;;;;;;;-143.84;71.59;45148.09;5031653;28;20438;-77
2022/01/07 04:41:40;;;;;;;10.77;6.70;;;;;;;-143.84;72.11;45153.81;5030791;28;20532;-72
2022/01/07 04:44:08;;;;;;;7.80;7.00;;;;;;;-143.84;72.53;45174.75;5030378;28;20435;-72
2022/01/07 04:46:35;;;;;;;7.20;6.50;;;;;;;-143.84;73.13;45146.19;5030564;28;20458;-73
2022/01/07 04:49:02;;;;;;;7.13;5.83;;;;;;;-143.84;73.91;45140.47;5030161;28;20940;-71
2022/01/07 04:51:30;;;;;;;7.33;5.67;;;;;;;-143.84;74.03;45180.47;5030142;28;20449;-72
2022/01/07 04:53:57;;;;;;;8.23;7.43;;;;;;;-143.84;74.13;45138.56;5030475;28;20478;-72
2022/01/07 04:56:26;;;;;;;11.93;6.63;;;;;;;-143.84;74.44;45129.03;5030102;28;20504;-72
2022/01/07 04:58:53;;;;;;;7.93;6.37;;;;;;;-143.84;74.72;45176.66;5030261;28;20442;-73
2022/01/07 05:01:20;;;;;;;10.30;6.20;;;;;;;-143.84;74.86;45150.00;5029877;28;20434;-72
2022/01/07 05:03:47;;;;;;;9.67;6.13;;;;;;;-143.84;75.10;45174.75;5030423;28;20446;-73
2022/01/07 05:06:43;;;;;;;6.60;5.83;;;;;;;-143.84;75.14;45167.13;5030579;28;20446;-78
2022/01/07 05:09:04;;;;;;;11.07;7.30;;;;;;;-143.84;75.31;45159.50;5031023;28;20442;-77
2022/01/07 05:11:32;;;;;;;9.80;7.83;;;;;;;-143.84;75.72;45161.41;5030974;28;20489;-77
2022/01/07 05:14:00;;;;;;;6.67;6.03;;;;;;;-143.84;75.87;45161.41;5030742;28;20516;-77
2022/01/07 05:16:28;;;;;;;6.90;6.00;;;;;;;-143.84;76.10;45146.19;5032484;28;20435;-83
2022/01/07 05:18:57;;;;;;;9.17;6.77;;;;;;;-143.84;76.81;45172.84;5029925;28;20469;-74
2022/01/07 05:21:24;;;;;;;7.00;6.20;;;;;;;-143.84;76.67;45176.66;5029236;28;20449;-74
2022/01/07 05:23:51;;;;;;;7.20;6.47;;;;;;;-143.84;76.41;45163.31;5029320;28;20497;-74
2022/01/07 05:26:19;;;;;;;10.20;7.80;;;;;;;-143.84;76.73;45165.22;5029620;28;20462;-74
2022/01/07 05:28:47;;;;;;;9.03;5.87;;;;;;;-143.84;76.80;45169.03;5029531;28;20450;-73
2022/01/07 05:31:15;;;;;;;8.67;7.40;;;;;;;-143.84;76.46;45167.13;5030211;28;20512;-83
2022/01/07 05:33:42;;;;;;;8.73;6.83;;;;;;;-143.84;76.75;45157.59;5032739;28;20434;-83
2022/01/07 05:36:09;;;;;;;8.13;7.33;;;;;;;-143.84;76.77;45165.22;5032827;28;20435;-77
2022/01/07 05:38:36;;;;;;;18.53;6.97;;;;;;;-143.84;77.14;45174.75;5032898;28;20757;-83
2022/01/07 05:41:04;;;;;;;8.00;6.70;;;;;;;-143.84;77.11;45151.91;5031986;28;20857;-85
2022/01/07 05:43:31;;;;;;;8.30;6.10;;;;;;;-143.84;77.15;45130.94;5030316;28;20486;-72
2022/01/07 05:45:59;;;;;;;7.63;6.50;;;;;;;-143.84;78.54;45161.41;5030429;28;20438;-77
2022/01/07 05:48:26;;;;;;;10.03;7.40;;;;;;;-143.84;77.37;45159.50;5038676;28;20520;-71
2022/01/07 05:50:54;;;;;;;7.93;6.73;;;;;;;-143.84;77.28;45159.50;5029633;28;20458;-72
2022/01/07 05:53:21;;;;;;;8.43;6.07;;;;;;;-143.84;77.20;45159.50;5029523;28;20449;-71
2022/01/07 05:55:48;;;;;;;10.67;7.73;;;;;;;-143.84;78.60;45151.91;5029944;28;20438;-71
2022/01/07 05:58:15;;;;;;;6.93;6.23;;;;;;;-143.84;77.32;45144.28;5029736;28;20454;-74
2022/01/07 06:00:42;;;;;;;11.67;8.03;;;;;;;-143.84;77.22;45174.75;5029505;28;20450;-72
2022/01/07 06:03:11;;;;;;;9.63;7.20;;;;;;;-143.84;77.49;45163.31;5029139;28;20536;-72
2022/01/07 06:05:38;;;;;;;13.00;7.53;;;;;;;-143.84;77.57;45157.59;5029372;28;20439;-72
2022/01/07 06:08:05;;;;;;;9.13;7.73;;;;;;;-143.84;77.77;45159.50;5029690;28;20434;-72
2022/01/07 06:10:33;;;;;;;13.03;7.50;;;;;;;-143.84;77.69;45189.97;5029378;28;20447;-72
2022/01/07 06:13:00;;;;;;;13.37;7.83;;;;;;;-143.84;77.70;45167.13;5031141;28;20442;-72
2022/01/07 06:15:27;;;;;;;7.53;6.83;;;;;;;-143.84;77.30;45161.41;5033122;28;20490;-72
2022/01/07 06:17:54;;;;;;;9.67;7.90;;;;;;;-143.84;77.98;45138.56;5031905;28;20439;-72
2022/01/07 06:20:23;;;;;;;9.53;7.40;;;;;;;-143.84;78.03;45155.69;5031957;28;20442;-72
2022/01/07 06:22:52;;;;;;;11.40;7.80;;;;;;;-143.84;77.70;45153.81;5034371;28;20867;-77
2022/01/07 06:25:19;;;;;;;9.03;6.83;;;;;;;-143.84;77.86;45140.47;5034183;28;20529;-77
2022/01/07 06:27:47;;;;;;;14.00;9.03;;;;;;;-143.84;77.74;45184.25;5014215;28;20447;-77
2022/01/07 06:30:14;;;;;;;13.50;7.27;;;;;;;-143.84;78.00;45153.81;5013864;28;20443;-77
2022/01/07 06:32:42;;;;;;;14.40;9.63;;;;;;;-143.84;78.13;45165.22;5014175;28;20439;-77
2022/01/07 06:35:11;;;;;;;9.70;7.37;;;;;;;-143.84;77.97;45146.19;5015403;28;20439;-75
2022/01/07 06:37:40;;;;;;;13.43;8.80;;;;;;;-143.84;78.11;45169.03;5028600;28;20450;-75
2022/01/07 06:40:09;;;;;;;11.10;9.03;;;;;;;-143.84;77.97;45176.66;5032767;28;20469;-73
2022/01/07 06:42:37;;;;;;;11.63;8.67;;;;;;;-143.84;78.05;45176.66;5032992;28;20477;-77
2022/01/07 06:45:08;;;;;;;14.80;8.43;;;;;;;-143.84;78.13;45169.03;5035261;28;20434;-77
2022/01/07 06:47:35;;;;;;;10.97;8.20;;;;;;;-143.84;78.06;45163.31;5034729;28;20834;-78
2022/01/07 06:50:02;;;;;;;10.67;8.23;;;;;;;-143.84;78.14;45157.59;5035021;28;20793;-77
2022/01/07 06:52:30;;;;;;;15.37;8.40;;;;;;;-143.84;77.97;45167.13;5034541;28;21009;-77
2022/01/07 06:54:58;;;;;;;20.40;8.53;;;;;;;-143.84;78.08;45157.59;5034780;28;20446;-77
2022/01/07 06:57:25;;;;;;;11.73;8.13;;;;;;;-143.84;77.91;45150.00;5035221;28;20434;-77
2022/01/07 06:59:53;;;;;;;10.90;7.50;;;;;;;-143.84;78.06;45180.47;5034459;28;20454;-77
2022/01/07 07:02:20;;;;;;;10.17;7.90;;;;;;;-143.84;77.98;45163.31;5034499;28;20470;-78
2022/01/07 07:04:47;;;;;;;12.33;8.13;;;;;;;-143.84;77.94;45184.25;5034537;28;20895;-78
2022/01/07 07:07:15;;;;;;;16.40;10.13;;;;;;;-143.84;77.90;45150.00;5034134;28;20442;-77
2022/01/07 07:09:42;;;;;;;13.80;9.20;;;;;;;-143.84;77.97;45125.22;5034461;28;20435;-77
2022/01/07 07:12:13;;;;;;;10.13;7.87;;;;;;;-143.84;78.00;45142.38;5034537;28;21249;-77
2022/01/07 07:14:40;;;;;;;10.10;8.00;;;;;;;-143.84;78.27;45157.59;5034414;28;20996;-77
2022/01/07 07:17:07;;;;;;;9.47;7.90;;;;;;;-143.84;77.95;45142.38;5034947;28;20423;-78
2022/01/07 07:19:34;;;;;;;9.50;7.50;;;;;;;-143.84;78.17;45138.56;5034083;28;20434;-77
2022/01/07 07:22:02;;;;;;;12.00;8.13;;;;;;;-143.84;78.19;45163.31;5033922;28;20458;-77
2022/01/07 07:24:29;;;;;;;12.40;9.37;;;;;;;-143.84;78.14;45169.03;5033344;28;20534;-77
2022/01/07 07:26:57;;;;;;;11.00;8.50;;;;;;;-143.84;77.88;45142.38;5033831;28;20505;-77
2022/01/07 07:29:26;;;;;;;16.43;8.80;;;;;;;-143.84;78.11;45165.22;5033625;28;20442;-77
2022/01/07 07:31:56;;;;;;;12.90;7.97;;;;;;;-143.84;78.06;45199.50;5033610;28;20446;-77
2022/01/07 07:37:10;;;;;;;13.90;8.93;;;;;;;-143.84;78.18;45155.69;5033211;28;20549;-77
2022/01/07 07:39:38;;;;;;;11.27;8.77;;;;;;;-143.84;77.63;45170.94;5033792;28;20443;-77
2022/01/07 07:42:06;;;;;;;15.17;9.33;;;;;;;-143.84;77.61;45157.59;5029300;28;20505;-77
2022/01/07 07:44:34;;;;;;;18.80;8.00;;;;;;;-143.84;77.54;45153.81;5028788;28;20446;-77
2022/01/07 07:47:02;;;;;;;16.90;9.70;;;;;;;-143.84;77.50;45159.50;5033462;28;20454;-77
2022/01/07 07:49:30;;;;;;;11.00;8.03;;;;;;;-143.84;77.54;45170.94;5033260;28;20466;-77
2022/01/07 07:51:57;;;;;;;15.00;9.17;;;;;;;-143.84;77.48;45161.41;5033871;28;20529;-77
2022/01/07 07:54:24;;;;;;;11.23;7.80;;;;;;;-143.84;77.25;45140.47;5033693;28;20447;-77
2022/01/07 07:56:52;;;;;;;12.07;9.27;;;;;;;-143.84;77.57;45142.38;5033881;28;20447;-77
2022/01/07 07:59:20;;;;;;;20.50;8.90;;;;;;;-143.84;78.11;45153.81;5033435;28;20956;-77
2022/01/07 08:01:49;;;;;;;13.10;9.00;;;;;;;-143.84;78.00;45142.38;5033549;28;20848;-77
2022/01/07 08:04:19;;;;;;;10.70;8.30;;;;;;;-143.84;77.58;45151.91;5031899;28;21034;-74
2022/01/07 08:06:47;;;;;;;12.67;8.90;;;;;;;-143.84;77.37;45138.56;5031378;28;20482;-72
2022/01/07 08:09:14;;;;;;;11.20;9.30;;;;;;;-143.84;77.97;45165.22;5031516;28;20497;-72
2022/01/07 08:11:51;;;;;;;12.80;8.60;;;;;;;-143.84;77.78;45146.19;5031080;28;20443;-72
2022/01/07 08:17:06;;;;;;;12.60;8.73;;;;;;;-143.84;77.98;45155.69;5031116;28;20430;-73
2022/01/07 08:19:34;;;;;;;11.97;8.07;;;;;;;-143.84;77.84;45155.69;5030995;28;20454;-72
2022/01/07 08:22:02;;;;;;;12.13;8.80;;;;;;;-143.84;77.65;45165.22;5030871;28;20450;-73
2022/01/07 08:24:29;;;;;;;10.37;8.10;;;;;;;-143.84;78.05;45170.94;5031411;28;20490;-80
2022/01/07 08:26:56;;;;;;;16.73;10.00;;;;;;;-143.84;78.30;45138.56;5033209;28;20520;-80
2022/01/07 08:29:29;;;;;;;12.43;9.87;;;;;;;-143.84;78.31;45155.69;5031565;28;20450;-79
2022/01/07 08:34:56;;;;;;;18.07;8.80;;;;;;;-143.84;78.34;45163.31;5031053;28;20966;-79
2022/01/07 08:37:25;;;;;;;12.63;9.33;;;;;;;-143.84;78.79;45167.13;5031927;28;20450;-74
2022/01/07 08:39:54;;;;;;;13.73;9.20;;;;;;;-143.84;78.44;45155.69;5028538;28;20850;-74
2022/01/07 08:42:22;;;;;;;14.43;9.50;;;;;;;-143.84;78.40;45151.91;5009145;28;21354;-74
2022/01/07 08:44:52;;;;;;;9.83;8.57;;;;;;;-143.84;78.23;45140.47;5010315;28;20491;-80
2022/01/07 08:47:21;;;;;;;9.57;8.33;;;;;;;-143.84;78.57;45169.03;5010019;28;20443;-76
2022/01/07 08:49:50;;;;;;;11.63;8.60;;;;;;;-143.84;78.05;45157.59;5010135;28;20448;-76
2022/01/07 08:52:19;;;;;;;13.40;8.80;;;;;;;-143.84;78.08;45153.81;5009946;28;20451;-73
2022/01/07 08:54:47;;;;;;;11.10;8.50;;;;;;;-143.84;78.30;45150.00;5010122;28;20823;-76
2022/01/07 08:57:14;;;;;;;11.63;9.63;;;;;;;-143.84;77.98;45142.38;5011176;28;20435;-73
2022/01/07 08:59:41;;;;;;;13.53;10.07;;;;;;;-143.84;78.03;45138.56;5010351;28;20444;-73
2022/01/07 09:02:09;;;;;;;15.63;9.87;;;;;;;-143.84;78.27;45129.03;5011559;28;20490;-80
2022/01/07 09:04:36;;;;;;;14.90;9.73;;;;;;;-143.84;78.62;45136.66;5012284;28;20539;-81
2022/01/07 09:07:05;;;;;;;17.53;9.57;;;;;;;-143.84;77.43;45146.19;5011280;28;20803;-80
2022/01/07 09:09:32;;;;;;;12.80;8.50;;;;;;;-143.84;76.21;45136.66;5011672;28;20476;-73
2022/01/07 09:11:59;;;;;;;11.20;9.23;;;;;;;-143.84;76.02;45142.38;5009882;28;20503;-75
2022/01/07 09:14:26;;;;;;;13.77;9.53;;;;;;;-143.84;75.02;45125.22;5009882;28;20488;-76
2022/01/07 09:16:54;;;;;;;13.37;8.60;;;;;;;-143.84;73.47;45150.00;5009833;28;20444;-73
2022/01/07 09:19:21;;;;;;;11.53;8.07;;;;;;;-143.84;73.11;45123.34;5012190;28;20455;-76
2022/01/07 09:21:48;;;;;;;16.47;9.70;;;;;;;-143.84;72.53;45146.19;5029600;28;20450;-74
2022/01/07 09:24:17;;;;;;;9.43;7.83;;;;;;;-143.84;71.48;45129.03;5030096;28;21000;-80
2022/01/07 09:26:44;;;;;;;14.10;8.53;;;;;;;-143.84;70.53;45111.91;5031631;28;20449;-80
2022/01/07 09:29:11;;;;;;;11.20;8.13;;;;;;;-143.84;69.73;45138.56;5044664;28;20674;-74
2022/01/07 09:31:39;;;;;;;9.10;7.37;;;;;;;-143.84;69.46;45140.47;5034314;28;20957;-80
2022/01/07 09:34:06;;;;;;;9.20;7.73;;;;;;;-143.84;68.69;45159.50;5034758;28;20443;-74
2022/01/07 09:36:34;;;;;;;9.73;7.37;;;;;;;-143.84;68.65;45111.91;5030557;28;20543;-77
2022/01/07 09:39:01;;;;;;;14.23;8.50;;;;;;;-143.84;69.00;45142.38;5029611;28;20510;-76
2022/01/07 09:41:30;;;;;;;9.40;7.23;;;;;;;-143.84;68.63;45125.22;5028990;28;20451;-78
2022/01/07 09:44:00;;;;;;;6.97;6.27;;;;;;;-143.84;68.59;45132.84;5049202;28;20475;-72
2022/01/07 09:46:28;;;;;;;28.77;6.90;;;;;;;-143.84;68.52;45123.34;5050209;28;21110;-77
2022/01/07 09:48:56;;;;;;;10.33;7.30;;;;;;;-143.84;68.29;45127.13;5053473;28;20892;-71
2022/01/07 09:51:26;;;;;;;9.57;7.13;;;;;;;-143.84;67.82;45161.41;5049142;28;20474;-73
2022/01/07 09:53:53;;;;;;;8.63;7.23;;;;;;;-143.84;67.83;45136.66;5048969;28;21027;-76
2022/01/07 09:56:21;;;;;;;9.70;6.23;;;;;;;-143.84;66.98;45191.88;5049835;28;20841;-79
2022/01/07 09:58:49;;;;;;;8.63;6.17;;;;;;;-143.84;66.79;45155.69;5049319;28;20443;-78
2022/01/07 10:01:19;;;;;;;10.00;7.10;;;;;;;-143.84;67.27;45125.22;5050028;28;20443;-76
2022/01/07 10:03:47;;;;;;;8.20;6.80;;;;;;;-143.84;67.47;45132.84;5049539;28;20490;-73
2022/01/07 10:06:22;;;;;;;8.60;6.33;;;;;;;-143.84;66.16;45144.28;5049117;28;20452;-73
2022/01/07 10:09:05;;;;;;;8.93;4.90;;;;;;;-143.84;65.79;45144.28;5050503;28;20435;-73
2022/01/07 10:11:32;;;;;;;6.90;5.77;;;;;;;-143.84;66.13;45142.38;5009700;28;20961;-75
2022/01/07 10:14:19;;;;;;;5.57;5.07;;;;;;;-143.84;65.56;45129.03;5009433;28;20453;-77
2022/01/07 10:16:52;;;;;;;6.40;5.40;;;;;;;-143.84;65.63;45102.38;5009557;28;20453;-77
2022/01/07 10:19:33;;;;;;;10.53;7.07;;;;;;;-143.84;66.08;45142.38;5009276;28;20464;-73
2022/01/07 10:22:03;;;;;;;7.90;6.27;;;;;;;-143.84;64.92;45129.03;5000880;28;20521;-73
2022/01/07 10:24:30;;;;;;;7.20;4.87;;;;;;;-143.84;63.91;45132.84;5009067;28;20478;-73
2022/01/07 10:27:11;;;;;;;5.97;5.27;;;;;;;-143.84;63.12;45140.47;5010615;28;20453;-78
2022/01/07 10:29:41;;;;;;;5.80;5.30;;;;;;;-143.84;63.37;45140.47;5011130;28;20445;-79
2022/01/07 10:32:25;;;;;;;6.90;5.00;;;;;;;-143.84;63.54;45096.66;5010874;28;20450;-78
2022/01/07 10:35:08;;;;;;;6.93;5.20;;;;;;;-143.84;63.44;45134.75;5011609;28;20449;-78
2022/01/07 10:37:35;;;;;;;8.47;4.90;;;;;;;-143.84;62.09;45146.19;5011024;28;20451;-78
2022/01/07 10:40:21;;;;;;;6.93;5.07;;;;;;;-143.84;62.97;45136.66;5010609;28;20462;-78
2022/01/07 10:42:48;;;;;;;8.67;5.37;;;;;;;-143.84;63.28;45146.19;5020085;28;21037;-78
2022/01/07 10:45:17;;;;;;;9.30;5.90;;;;;;;-143.84;63.46;45119.53;5023491;28;20488;-78
2022/01/07 10:47:50;;;;;;;4.97;4.47;;;;;;;-143.84;63.37;45121.44;5030291;28;20471;-78
2022/01/07 10:50:19;;;;;;;5.77;5.27;;;;;;;-143.84;63.74;45142.38;5030244;28;21177;-78
2022/01/07 10:52:47;;;;;;;7.63;5.10;;;;;;;-143.84;64.15;45094.78;5030286;28;20438;-78
2022/01/07 10:55:19;;;;;;;6.00;5.40;;;;;;;-143.84;64.25;45129.03;5029483;28;20456;-79
2022/01/07 10:57:49;;;;;;;8.53;6.03;;;;;;;-143.84;64.45;45144.28;5030014;28;20460;-78
2022/01/07 11:00:19;;;;;;;8.50;6.07;;;;;;;-143.84;64.93;45106.19;5033749;28;20434;-78
2022/01/07 11:02:47;;;;;;;12.70;6.97;;;;;;;-143.84;65.00;45142.38;5032742;28;20875;-73
2022/01/07 11:05:15;;;;;;;8.77;5.50;;;;;;;-143.84;64.97;45136.66;5028093;28;20492;-73
2022/01/07 11:07:42;;;;;;;6.33;5.70;;;;;;;-143.84;65.05;45148.09;5031384;28;20455;-73
2022/01/07 11:10:10;;;;;;;7.10;5.60;;;;;;;-143.84;65.23;45121.44;5026597;28;20458;-73
2022/01/07 11:12:37;;;;;;;8.70;6.20;;;;;;;-143.84;65.34;45130.94;5031435;28;20517;-73
2022/01/07 11:15:08;;;;;;;10.07;6.90;;;;;;;-143.84;65.85;45117.63;5030428;28;20586;-73
2022/01/07 11:17:37;;;;;;;8.50;6.53;;;;;;;-143.84;65.79;45096.66;5028006;28;20949;-73
2022/01/07 11:20:07;;;;;;;7.87;7.00;;;;;;;-143.84;66.59;45140.47;5031603;28;20445;-72
2022/01/07 11:22:40;;;;;;;12.93;8.97;;;;;;;-143.84;67.18;45150.00;5031544;28;20459;-73
2022/01/07 11:25:10;;;;;;;10.33;7.40;;;;;;;-143.84;67.58;45155.69;5031686;28;20480;-73
2022/01/07 11:27:49;;;;;;;11.10;7.30;;;;;;;-143.84;68.55;45136.66;5031698;28;20452;-72